createdAt,value
2022-09-15T00:03:13.603Z,78.40
2022-09-15T00:08:15.518Z,78.64
2022-09-15T00:13:16.951Z,78.93
2022-09-15T00:18:18.147Z,79.25
2022-09-15T00:23:19.380Z,79.35
2022-09-15T00:28:22.140Z,79.65
2022-09-15T00:33:23.411Z,79.47
2022-09-15T00:38:25.109Z,79.56
2022-09-15T00:44:03.954Z,79.65
2022-09-15T00:49:14.818Z,79.74
2022-09-15T00:54:38.664Z,79.90
2022-09-15T00:59:41.980Z,80.02
2022-09-15T01:04:43.767Z,80.17
2022-09-15T01:09:51.296Z,80.38
2022-09-15T01:14:52.899Z,80.41
2022-09-15T01:20:31.813Z,80.26
2022-09-15T01:26:02.682Z,80.46
2022-09-15T01:31:28.745Z,80.35
2022-09-15T01:36:47.583Z,80.48
2022-09-15T01:42:00.714Z,80.50
2022-09-15T01:47:07.745Z,80.50
2022-09-15T01:52:08.902Z,80.71
2022-09-15T01:57:10.057Z,80.97
2022-09-15T02:02:19.456Z,80.93
2022-09-15T02:07:34.859Z,81.23
2022-09-15T02:12:51.035Z,81.63
2022-09-15T02:17:54.572Z,81.32
2022-09-15T02:23:00.884Z,81.33
2022-09-15T02:28:08.310Z,81.39
2022-09-15T02:33:16.328Z,81.53
2022-09-15T02:38:17.549Z,81.58
2022-09-15T02:43:18.758Z,81.48
2022-09-15T02:48:20.537Z,81.75
2022-09-15T02:53:21.658Z,81.82
2022-09-15T02:58:23.500Z,82.02
2022-09-15T03:03:24.668Z,81.90
2022-09-15T03:08:28.253Z,82.08
2022-09-15T03:13:29.612Z,82.24
2022-09-15T03:18:30.798Z,82.42
2022-09-15T03:23:32.568Z,82.71
2022-09-15T03:28:35.181Z,82.72
2022-09-15T03:33:36.893Z,82.83
2022-09-15T03:38:38.052Z,82.97
2022-09-15T03:43:39.586Z,82.99
2022-09-15T03:48:41.043Z,83.12
2022-09-15T03:53:43.396Z,83.17
2022-09-15T03:58:44.626Z,83.28
2022-09-15T04:03:51.050Z,83.42
2022-09-15T04:08:55.072Z,83.40
2022-09-15T04:13:59.828Z,83.45
2022-09-15T04:19:01.485Z,83.57
2022-09-15T04:24:04.429Z,83.74
2022-09-15T04:29:12.367Z,83.94
2022-09-15T04:34:13.636Z,84.27
2022-09-15T04:39:14.799Z,84.57
2022-09-15T04:44:16.168Z,84.56
2022-09-15T04:49:17.515Z,84.80
2022-09-15T04:54:19.527Z,85.08
2022-09-15T04:59:20.747Z,85.14
2022-09-15T05:04:22.062Z,85.29
2022-09-15T05:09:23.783Z,84.99
2022-09-15T05:14:24.982Z,84.90
2022-09-15T05:19:28.735Z,84.82
2022-09-15T05:24:30.082Z,84.74
2022-09-15T05:29:31.383Z,84.46
2022-09-15T05:34:32.552Z,83.94
2022-09-15T05:39:33.766Z,83.28
2022-09-15T05:44:37.965Z,82.37
2022-09-15T05:49:39.154Z,81.31
2022-09-15T05:54:40.308Z,80.91
2022-09-15T05:59:43.207Z,81.02
2022-09-15T06:04:46.864Z,80.95
2022-09-15T06:09:48.497Z,78.49
2022-09-15T06:14:50.393Z,74.92
2022-09-15T06:19:51.817Z,70.59
2022-09-15T06:24:53.288Z,65.91
2022-09-15T06:29:54.433Z,62.32
2022-09-15T06:34:55.683Z,61.26
2022-09-15T06:39:56.932Z,56.80
2022-09-15T06:44:58.820Z,51.71
2022-09-15T06:50:00.416Z,49.32
2022-09-15T06:55:01.688Z,49.59
2022-09-15T07:00:05.693Z,45.84
2022-09-15T07:05:07.226Z,42.65
2022-09-15T07:10:09.344Z,40.10
2022-09-15T07:15:11.043Z,37.52
2022-09-15T07:20:13.261Z,38.71
2022-09-15T07:25:15.133Z,37.88
2022-09-15T07:30:16.376Z,37.61
2022-09-15T07:35:18.788Z,37.98
2022-09-15T07:40:21.365Z,37.96
2022-09-15T07:45:22.676Z,37.36
2022-09-15T07:50:23.937Z,38.34
2022-09-15T07:55:25.081Z,39.16
2022-09-15T08:00:27.375Z,39.25
2022-09-15T08:05:28.693Z,40.01
2022-09-15T08:10:29.887Z,41.26
2022-09-15T08:15:31.407Z,41.64
2022-09-15T08:20:33.069Z,43.36
2022-09-15T08:25:34.645Z,44.35
2022-09-15T08:30:38.098Z,44.56
2022-09-15T08:35:39.220Z,46.30
2022-09-15T08:40:45.321Z,46.95
2022-09-15T08:45:54.896Z,47.42
2022-09-15T08:51:03.217Z,48.50
2022-09-15T08:56:16.233Z,48.93
2022-09-15T09:01:42.299Z,49.40
2022-09-15T09:07:09.815Z,49.52
2022-09-15T09:12:28.842Z,48.47
2022-09-15T09:18:08.067Z,47.27
2022-09-15T09:23:16.905Z,46.81
2022-09-15T09:28:40.488Z,47.85
2022-09-15T09:33:55.584Z,47.94
2022-09-15T09:38:57.879Z,47.56
2022-09-15T09:43:59.084Z,47.98
2022-09-15T09:49:23.055Z,47.54
2022-09-15T09:54:27.902Z,49.22
2022-09-15T09:59:35.094Z,49.56
2022-09-15T10:04:41.445Z,49.97
2022-09-15T10:10:18.671Z,51.30
2022-09-15T10:15:24.453Z,51.81
2022-09-15T10:20:34.765Z,52.04
2022-09-15T10:25:58.580Z,52.38
2022-09-15T10:31:02.491Z,53.48
2022-09-15T10:36:05.383Z,54.13
2022-09-15T10:41:26.854Z,54.72
2022-09-15T10:46:41.784Z,55.42
2022-09-15T10:51:49.560Z,55.87
2022-09-15T10:56:57.190Z,56.02
2022-09-15T11:02:13.740Z,56.11
2022-09-15T11:07:17.684Z,55.52
2022-09-15T11:12:40.894Z,54.75
2022-09-15T11:18:19.487Z,55.16
2022-09-15T11:23:33.979Z,56.10
2022-09-15T11:28:39.074Z,56.52
2022-09-15T11:33:54.459Z,56.07
2022-09-15T11:39:21.182Z,55.24
2022-09-15T11:44:27.054Z,55.00
2022-09-15T11:49:39.910Z,55.01
2022-09-15T11:54:48.134Z,54.30
2022-09-15T12:00:11.596Z,53.85
2022-09-15T12:05:23.584Z,52.17
2022-09-15T12:10:31.073Z,52.09
2022-09-15T12:15:33.991Z,52.49
2022-09-15T12:20:52.796Z,53.02
2022-09-15T12:25:53.837Z,51.79
2022-09-15T12:31:32.847Z,51.39
2022-09-15T12:36:53.550Z,51.54
2022-09-15T12:42:05.748Z,50.91
2022-09-15T12:47:19.272Z,50.25
2022-09-15T12:52:24.312Z,49.25
2022-09-15T12:57:33.687Z,49.50
2022-09-15T13:02:46.901Z,48.91
2022-09-15T13:07:58.085Z,48.63
2022-09-15T13:13:25.275Z,49.00
2022-09-15T13:18:31.586Z,48.16
2022-09-15T13:23:37.782Z,47.10
2022-09-15T13:28:39.333Z,46.62
2022-09-15T13:39:17.218Z,48.21
2022-09-15T13:44:56.784Z,47.30
2022-09-15T13:50:16.869Z,47.28
2022-09-15T13:55:26.980Z,47.61
2022-09-15T14:00:43.356Z,48.65
2022-09-15T14:05:45.416Z,48.58
2022-09-15T14:10:57.757Z,48.27
2022-09-15T14:16:00.815Z,47.87
2022-09-15T14:21:04.794Z,47.20
2022-09-15T14:26:12.430Z,49.29
2022-09-15T14:31:13.869Z,50.57
2022-09-15T14:36:26.990Z,51.22
2022-09-15T14:41:31.999Z,52.43
2022-09-15T14:46:37.741Z,53.12
2022-09-15T14:51:45.285Z,53.77
2022-09-15T14:56:49.630Z,54.29
2022-09-15T15:02:47.937Z,54.96
2022-09-15T15:07:50.630Z,55.00
2022-09-15T15:13:05.048Z,55.34
2022-09-15T15:18:31.663Z,55.91
2022-09-15T15:23:33.356Z,56.35
2022-09-15T15:28:36.301Z,56.36
2022-09-15T15:33:45.713Z,55.86
2022-09-15T15:38:56.078Z,55.75
2022-09-15T15:44:08.423Z,55.44
2022-09-15T15:49:14.446Z,55.11
2022-09-15T15:54:15.646Z,54.51
2022-09-15T15:59:17.252Z,54.73
2022-09-15T16:04:19.235Z,54.67
2022-09-15T16:09:20.434Z,54.73
2022-09-15T16:14:21.544Z,54.65
2022-09-15T16:19:22.736Z,55.22
2022-09-15T16:24:24.299Z,55.46
2022-09-15T16:29:29.135Z,55.72
2022-09-15T16:34:30.574Z,55.85
2022-09-15T16:39:31.798Z,56.14
2022-09-15T16:44:33.425Z,56.31
2022-09-15T16:49:36.813Z,56.16
2022-09-15T16:54:38.383Z,56.37
2022-09-15T16:59:40.593Z,56.78
2022-09-15T17:04:41.749Z,57.43
2022-09-15T17:09:43.300Z,57.97
2022-09-15T17:14:44.485Z,58.52
2022-09-15T17:19:45.929Z,58.74
2022-09-15T17:24:47.352Z,58.48
2022-09-15T17:29:49.294Z,58.18
2022-09-15T17:34:51.167Z,58.13
2022-09-15T17:39:58.146Z,58.29
2022-09-15T17:45:00.359Z,58.51
2022-09-15T17:50:01.732Z,59.10
2022-09-15T17:55:11.181Z,59.75
2022-09-15T18:00:13.777Z,60.47
2022-09-15T18:05:35.332Z,61.23
2022-09-15T18:10:37.720Z,61.82
2022-09-15T18:15:39.243Z,62.38
2022-09-15T18:20:41.510Z,62.89
2022-09-15T18:25:43.540Z,63.45
2022-09-15T18:30:47.216Z,63.83
2022-09-15T18:35:50.836Z,64.03
2022-09-15T18:40:55.218Z,64.41
2022-09-15T18:46:00.689Z,64.71
2022-09-15T18:51:07.770Z,65.38
2022-09-15T18:56:10.759Z,65.75
2022-09-15T19:01:12.097Z,65.93
2022-09-15T19:06:14.662Z,66.25
2022-09-15T19:11:16.589Z,66.75
2022-09-15T19:16:22.736Z,67.10
2022-09-15T19:21:27.396Z,67.48
2022-09-15T19:26:29.102Z,68.27
2022-09-15T19:31:30.485Z,68.89
2022-09-15T19:36:31.999Z,69.48
2022-09-15T19:41:33.494Z,69.71
2022-09-15T19:46:34.672Z,70.27
2022-09-15T19:51:35.733Z,70.52
2022-09-15T19:56:38.051Z,70.75
2022-09-15T20:01:39.290Z,71.13
2022-09-15T20:06:42.114Z,71.34
2022-09-15T20:11:43.198Z,71.95
2022-09-15T20:16:44.561Z,72.20
2022-09-15T20:21:50.734Z,73.04
2022-09-15T20:26:53.179Z,73.54
2022-09-15T20:31:54.468Z,74.21
2022-09-15T20:36:55.656Z,74.53
2022-09-15T20:41:57.332Z,74.90
2022-09-15T20:46:58.493Z,74.69
2022-09-15T20:51:59.604Z,74.92
2022-09-15T20:57:00.994Z,75.02
2022-09-15T21:02:06.497Z,75.30
2022-09-15T21:07:07.751Z,75.78
2022-09-15T21:12:09.784Z,75.68
2022-09-15T21:17:11.074Z,76.02
2022-09-15T21:22:14.158Z,76.27
2022-09-15T21:27:33.776Z,76.33
2022-09-15T21:32:35.718Z,76.75
2022-09-15T21:37:36.853Z,76.69
2022-09-15T21:42:38.661Z,76.81
2022-09-15T21:47:39.924Z,77.09
2022-09-15T21:52:40.967Z,77.25
2022-09-15T21:57:42.072Z,77.50
2022-09-15T22:02:43.245Z,77.80
2022-09-15T22:07:44.321Z,78.06
2022-09-15T22:12:45.484Z,78.31
2022-09-15T22:17:46.651Z,78.65
2022-09-15T22:22:48.122Z,79.06
2022-09-15T22:27:49.271Z,79.27
2022-09-15T22:32:51.983Z,79.33
2022-09-15T22:37:53.487Z,79.23
2022-09-15T22:42:54.610Z,79.29
2022-09-15T22:47:55.771Z,79.43
2022-09-15T22:52:56.833Z,79.84
2022-09-15T22:57:58.221Z,80.34
2022-09-15T23:03:01.261Z,80.41
2022-09-15T23:08:02.903Z,80.22
2022-09-15T23:13:04.162Z,80.12
2022-09-15T23:18:05.241Z,79.90
2022-09-15T23:23:06.476Z,79.85
2022-09-15T23:28:07.612Z,79.78
2022-09-15T23:33:09.187Z,80.13
2022-09-15T23:38:10.349Z,80.67
2022-09-15T23:43:12.023Z,81.18
2022-09-15T23:48:13.536Z,82.00
2022-09-15T23:53:14.698Z,82.56
2022-09-15T23:58:16.768Z,82.93
